Bradner, Ohio
Current Conditions -  °F | °C
As of 6:53 AM on Wednesday 28 Jan 2015 (Local Time) from KTDZ Reporting Station
Clear Clear  
Wind Chill: 11°   Ceiling: Unl
Heat Index: 11°   Visibility: 10mi
Dew Point:   Wind: 0mph
Humidity: 77%   Direction: NA
Pressure: 30.35"   Gusts: NA
Location:  41.32°N, 83.44°W
Report Text: KTDZ 281153Z AUTO 00000KT 10SM CLR M12/M15 A3035 RMK AO2 SLP289 I1000 I6000 T11171150 11100 21139 51025 TSNO
Loading
Personal Weather Stations






























Interactive Weather Map New forecast layout! Learn more

10-Day Weather Forecast

Advertisements
Track Severe Weather on mobile